sensor_id;sensor_type;location;lat;lon;timestamp;pressure;altitude;pressure_sealevel;temperature;humidity
63582;BME280;49727;51.078;17.066;2022-08-19T00:12:54;99435.72;;;25.11;54.22
63582;BME280;49727;51.078;17.066;2022-08-19T00:27:54;99408.53;;;25.06;54.45
63582;BME280;49727;51.078;17.066;2022-08-19T00:42:55;99407.75;;;25.00;55.20
63582;BME280;49727;51.078;17.066;2022-08-19T00:57:59;99418.28;;;24.77;55.40
63582;BME280;49727;51.078;17.066;2022-08-19T01:13:02;99392.53;;;24.59;56.22
63582;BME280;49727;51.078;17.066;2022-08-19T01:28:03;99344.47;;;24.39;56.83
63582;BME280;49727;51.078;17.066;2022-08-19T01:43:04;99341.88;;;24.19;56.95
63582;BME280;49727;51.078;17.066;2022-08-19T01:58:08;99340.41;;;23.81;57.61
63582;BME280;49727;51.078;17.066;2022-08-19T02:13:12;99349.75;;;23.49;58.47
63582;BME280;49727;51.078;17.066;2022-08-19T02:28:13;99320.75;;;23.24;58.71
63582;BME280;49727;51.078;17.066;2022-08-19T02:43:13;99316.75;;;22.65;59.72
63582;BME280;49727;51.078;17.066;2022-08-19T02:58:14;99311.47;;;22.07;61.27
63582;BME280;49727;51.078;17.066;2022-08-19T03:13:17;99330.38;;;21.71;62.40
63582;BME280;49727;51.078;17.066;2022-08-19T03:28:17;99353.50;;;21.41;63.53
63582;BME280;49727;51.078;17.066;2022-08-19T03:43:18;99351.47;;;21.21;64.62
63582;BME280;49727;51.078;17.066;2022-08-19T03:58:19;99364.69;;;21.12;65.40
63582;BME280;49727;51.078;17.066;2022-08-19T04:13:20;99367.91;;;21.09;65.81
63582;BME280;49727;51.078;17.066;2022-08-19T04:28:21;99390.22;;;21.26;66.23
63582;BME280;49727;51.078;17.066;2022-08-19T04:43:22;99369.78;;;21.51;66.49
63582;BME280;49727;51.078;17.066;2022-08-19T04:58:24;99367.25;;;21.82;66.35
63582;BME280;49727;51.078;17.066;2022-08-19T05:13:25;99376.06;;;22.15;66.20
63582;BME280;49727;51.078;17.066;2022-08-19T05:28:26;99367.47;;;22.59;65.99
63582;BME280;49727;51.078;17.066;2022-08-19T05:43:27;99385.44;;;22.96;65.42
63582;BME280;49727;51.078;17.066;2022-08-19T05:58:28;99365.03;;;23.30;64.85
63582;BME280;49727;51.078;17.066;2022-08-19T06:13:28;99412.53;;;23.63;64.37
63582;BME280;49727;51.078;17.066;2022-08-19T06:28:28;99436.34;;;24.03;63.28
63582;BME280;49727;51.078;17.066;2022-08-19T06:43:28;99472.31;;;24.55;61.91
63582;BME280;49727;51.078;17.066;2022-08-19T06:58:29;99494.75;;;25.60;60.46
63582;BME280;49727;51.078;17.066;2022-08-19T07:13:34;99497.31;;;26.29;57.68
63582;BME280;49727;51.078;17.066;2022-08-19T07:28:36;99529.06;;;27.07;56.08
63582;BME280;49727;51.078;17.066;2022-08-19T07:43:40;99528.78;;;28.49;52.75
63582;BME280;49727;51.078;17.066;2022-08-19T07:58:43;99522.59;;;29.53;47.89
63582;BME280;49727;51.078;17.066;2022-08-19T08:13:43;99541.81;;;31.52;43.84
63582;BME280;49727;51.078;17.066;2022-08-19T08:28:44;99542.16;;;32.16;40.15
63582;BME280;49727;51.078;17.066;2022-08-19T08:43:46;99530.19;;;33.81;36.80
63582;BME280;49727;51.078;17.066;2022-08-19T08:59:07;99531.22;;;34.25;35.92
63582;BME280;49727;51.078;17.066;2022-08-19T09:14:23;99507.44;;;36.03;32.76
63582;BME280;49727;51.078;17.066;2022-08-19T09:29:28;99528.75;;;43.09;23.23
63582;BME280;49727;51.078;17.066;2022-08-19T09:44:29;99526.41;;;42.89;22.07
63582;BME280;49727;51.078;17.066;2022-08-19T09:59:30;99522.97;;;41.66;22.90
63582;BME280;49727;51.078;17.066;2022-08-19T10:14:30;99534.72;;;40.84;23.56
63582;BME280;49727;51.078;17.066;2022-08-19T10:29:32;99523.25;;;40.33;23.38
63582;BME280;49727;51.078;17.066;2022-08-19T10:44:34;99506.97;;;39.87;24.34
63582;BME280;49727;51.078;17.066;2022-08-19T10:59:35;99513.81;;;40.56;24.19
63582;BME280;49727;51.078;17.066;2022-08-19T11:14:37;99507.38;;;40.44;23.15
63582;BME280;49727;51.078;17.066;2022-08-19T11:29:38;99515.13;;;39.62;24.24
63582;BME280;49727;51.078;17.066;2022-08-19T11:44:38;99528.50;;;37.15;25.68
63582;BME280;49727;51.078;17.066;2022-08-19T11:59:39;99519.91;;;36.45;26.77
63582;BME280;49727;51.078;17.066;2022-08-19T12:14:39;99506.03;;;36.81;25.31
63582;BME280;49727;51.078;17.066;2022-08-19T12:29:39;99507.09;;;36.76;25.57
63582;BME280;49727;51.078;17.066;2022-08-19T12:44:41;99504.88;;;37.67;26.08
63582;BME280;49727;51.078;17.066;2022-08-19T12:59:42;99506.91;;;38.43;25.05
63582;BME280;49727;51.078;17.066;2022-08-19T13:14:42;99494.09;;;37.39;24.63
63582;BME280;49727;51.078;17.066;2022-08-19T13:29:46;99504.69;;;36.74;24.96
63582;BME280;49727;51.078;17.066;2022-08-19T13:45:05;99495.41;;;35.67;26.61
63582;BME280;49727;51.078;17.066;2022-08-19T14:00:09;99505.13;;;35.17;27.72
63582;BME280;49727;51.078;17.066;2022-08-19T14:15:11;99499.84;;;34.30;29.49
63582;BME280;49727;51.078;17.066;2022-08-19T14:30:17;99492.81;;;33.16;30.88
63582;BME280;49727;51.078;17.066;2022-08-19T14:45:18;99482.00;;;32.69;32.22
63582;BME280;49727;51.078;17.066;2022-08-19T15:00:19;99477.56;;;32.98;32.82
63582;BME280;49727;51.078;17.066;2022-08-19T15:15:19;99480.47;;;32.59;34.34
63582;BME280;49727;51.078;17.066;2022-08-19T15:30:24;99493.81;;;32.78;35.32
63582;BME280;49727;51.078;17.066;2022-08-19T15:45:25;99501.19;;;32.35;37.89
63582;BME280;49727;51.078;17.066;2022-08-19T16:00:31;99515.75;;;31.50;39.28
63582;BME280;49727;51.078;17.066;2022-08-19T16:15:50;99505.94;;;30.96;41.41
63582;BME280;49727;51.078;17.066;2022-08-19T16:30:52;99487.78;;;30.86;43.86
63582;BME280;49727;51.078;17.066;2022-08-19T16:45:53;99524.94;;;30.40;45.38
63582;BME280;49727;51.078;17.066;2022-08-19T17:00:56;99511.97;;;30.41;45.35
63582;BME280;49727;51.078;17.066;2022-08-19T17:15:57;99542.53;;;30.39;45.18
63582;BME280;49727;51.078;17.066;2022-08-19T17:30:58;99550.38;;;30.14;44.95
63582;BME280;49727;51.078;17.066;2022-08-19T17:45:59;99580.56;;;29.83;45.65
63582;BME280;49727;51.078;17.066;2022-08-19T18:01:02;99606.88;;;29.61;46.01
63582;BME280;49727;51.078;17.066;2022-08-19T18:16:03;99599.78;;;29.37;45.79
63582;BME280;49727;51.078;17.066;2022-08-19T18:31:11;99626.69;;;28.85;47.62
63582;BME280;49727;51.078;17.066;2022-08-19T18:46:12;99638.31;;;28.35;48.54
63582;BME280;49727;51.078;17.066;2022-08-19T19:01:35;99658.22;;;27.36;50.83
63582;BME280;49727;51.078;17.066;2022-08-19T19:16:37;99718.59;;;26.43;54.26
63582;BME280;49727;51.078;17.066;2022-08-19T19:31:38;99692.03;;;25.85;57.26
63582;BME280;49727;51.078;17.066;2022-08-19T19:46:40;99700.13;;;25.95;58.02
63582;BME280;49727;51.078;17.066;2022-08-19T20:01:42;99766.59;;;24.99;60.32
63582;BME280;49727;51.078;17.066;2022-08-19T20:16:46;99755.72;;;24.07;63.03
63582;BME280;49727;51.078;17.066;2022-08-19T20:31:47;99724.09;;;23.64;64.53
63582;BME280;49727;51.078;17.066;2022-08-19T20:46:48;99708.31;;;23.61;65.57
63582;BME280;49727;51.078;17.066;2022-08-19T21:01:48;99716.19;;;23.58;65.97
63582;BME280;49727;51.078;17.066;2022-08-19T21:16:50;99738.66;;;23.27;66.61
63582;BME280;49727;51.078;17.066;2022-08-19T21:31:51;99705.97;;;23.12;67.68
63582;BME280;49727;51.078;17.066;2022-08-19T21:46:51;99692.38;;;23.12;67.40
63582;BME280;49727;51.078;17.066;2022-08-19T22:01:51;99675.75;;;22.98;67.41
63582;BME280;49727;51.078;17.066;2022-08-19T22:16:52;99659.13;;;22.89;67.86
63582;BME280;49727;51.078;17.066;2022-08-19T22:31:52;99656.91;;;22.71;67.90
63582;BME280;49727;51.078;17.066;2022-08-19T22:46:53;99664.41;;;22.53;68.71
63582;BME280;49727;51.078;17.066;2022-08-19T23:01:54;99673.00;;;22.40;68.87
63582;BME280;49727;51.078;17.066;2022-08-19T23:16:54;99668.94;;;22.10;69.77
63582;BME280;49727;51.078;17.066;2022-08-19T23:31:54;99655.69;;;22.13;70.64
63582;BME280;49727;51.078;17.066;2022-08-19T23:46:55;99665.00;;;22.65;70.50
